sensor_id;sensor_type;location;lat;lon;timestamp;P1;durP1;ratioP1;P2;durP2;ratioP2
65477;SDS011;53678;39.642;22.430;2023-10-08T00:02:03;26.10;;;15.75;;
65477;SDS011;53678;39.642;22.430;2023-10-08T00:04:33;30.25;;;15.70;;
65477;SDS011;53678;39.642;22.430;2023-10-08T00:07:09;23.75;;;15.50;;
65477;SDS011;53678;39.642;22.430;2023-10-08T00:09:35;26.88;;;16.17;;
65477;SDS011;53678;39.642;22.430;2023-10-08T00:12:05;26.33;;;16.13;;
65477;SDS011;53678;39.642;22.430;2023-10-08T00:14:30;24.15;;;16.08;;
65477;SDS011;53678;39.642;22.430;2023-10-08T00:17:09;19.48;;;13.75;;
65477;SDS011;53678;39.642;22.430;2023-10-08T00:19:36;23.30;;;13.32;;
65477;SDS011;53678;39.642;22.430;2023-10-08T00:22:05;21.92;;;14.40;;
65477;SDS011;53678;39.642;22.430;2023-10-08T00:24:32;22.60;;;14.13;;
65477;SDS011;53678;39.642;22.430;2023-10-08T00:26:59;23.73;;;14.02;;
65477;SDS011;53678;39.642;22.430;2023-10-08T00:29:25;20.83;;;15.02;;
65477;SDS011;53678;39.642;22.430;2023-10-08T00:31:52;22.95;;;14.20;;
65477;SDS011;53678;39.642;22.430;2023-10-08T00:34:22;19.75;;;13.45;;
65477;SDS011;53678;39.642;22.430;2023-10-08T00:36:54;18.73;;;12.90;;
65477;SDS011;53678;39.642;22.430;2023-10-08T00:39:20;18.45;;;13.35;;
65477;SDS011;53678;39.642;22.430;2023-10-08T00:41:50;19.92;;;12.85;;
65477;SDS011;53678;39.642;22.430;2023-10-08T00:44:20;17.63;;;12.48;;
65477;SDS011;53678;39.642;22.430;2023-10-08T00:46:54;18.17;;;12.27;;
65477;SDS011;53678;39.642;22.430;2023-10-08T00:49:22;21.30;;;13.13;;
65477;SDS011;53678;39.642;22.430;2023-10-08T00:51:56;18.45;;;12.57;;
65477;SDS011;53678;39.642;22.430;2023-10-08T00:54:34;19.52;;;13.32;;
65477;SDS011;53678;39.642;22.430;2023-10-08T00:57:21;20.40;;;13.02;;
65477;SDS011;53678;39.642;22.430;2023-10-08T00:59:48;21.90;;;13.05;;
65477;SDS011;53678;39.642;22.430;2023-10-08T01:02:23;20.55;;;13.35;;
65477;SDS011;53678;39.642;22.430;2023-10-08T01:04:54;24.40;;;13.98;;
65477;SDS011;53678;39.642;22.430;2023-10-08T01:07:21;21.92;;;14.00;;
65477;SDS011;53678;39.642;22.430;2023-10-08T01:09:49;19.85;;;13.70;;
65477;SDS011;53678;39.642;22.430;2023-10-08T01:12:25;20.58;;;12.40;;
65477;SDS011;53678;39.642;22.430;2023-10-08T01:15:14;18.15;;;13.00;;
65477;SDS011;53678;39.642;22.430;2023-10-08T01:17:48;20.67;;;12.68;;
65477;SDS011;53678;39.642;22.430;2023-10-08T01:20:24;19.33;;;13.57;;
65477;SDS011;53678;39.642;22.430;2023-10-08T01:23:00;20.50;;;13.15;;
65477;SDS011;53678;39.642;22.430;2023-10-08T01:25:29;21.33;;;13.13;;
65477;SDS011;53678;39.642;22.430;2023-10-08T01:27:56;21.25;;;14.48;;
65477;SDS011;53678;39.642;22.430;2023-10-08T01:30:26;19.15;;;13.27;;
65477;SDS011;53678;39.642;22.430;2023-10-08T01:35:28;21.58;;;12.75;;
65477;SDS011;53678;39.642;22.430;2023-10-08T01:37:57;21.98;;;13.77;;
65477;SDS011;53678;39.642;22.430;2023-10-08T01:40:25;18.23;;;13.07;;
65477;SDS011;53678;39.642;22.430;2023-10-08T01:42:52;25.10;;;14.52;;
65477;SDS011;53678;39.642;22.430;2023-10-08T01:45:18;18.88;;;13.35;;
65477;SDS011;53678;39.642;22.430;2023-10-08T01:47:44;20.48;;;13.13;;
65477;SDS011;53678;39.642;22.430;2023-10-08T01:50:10;19.77;;;12.52;;
65477;SDS011;53678;39.642;22.430;2023-10-08T01:52:53;23.63;;;13.90;;
65477;SDS011;53678;39.642;22.430;2023-10-08T01:55:19;18.90;;;12.50;;
65477;SDS011;53678;39.642;22.430;2023-10-08T01:57:46;22.55;;;13.05;;
65477;SDS011;53678;39.642;22.430;2023-10-08T02:00:12;20.45;;;13.57;;
65477;SDS011;53678;39.642;22.430;2023-10-08T02:02:40;21.63;;;13.85;;
65477;SDS011;53678;39.642;22.430;2023-10-08T02:05:08;20.58;;;12.95;;
65477;SDS011;53678;39.642;22.430;2023-10-08T02:07:35;20.75;;;12.85;;
65477;SDS011;53678;39.642;22.430;2023-10-08T02:10:00;19.52;;;12.55;;
65477;SDS011;53678;39.642;22.430;2023-10-08T02:12:26;22.65;;;13.60;;
65477;SDS011;53678;39.642;22.430;2023-10-08T02:14:52;18.95;;;12.43;;
65477;SDS011;53678;39.642;22.430;2023-10-08T02:17:17;22.73;;;12.38;;
65477;SDS011;53678;39.642;22.430;2023-10-08T02:19:44;22.73;;;14.20;;
65477;SDS011;53678;39.642;22.430;2023-10-08T02:22:11;22.25;;;13.02;;
65477;SDS011;53678;39.642;22.430;2023-10-08T02:24:37;19.45;;;12.75;;
65477;SDS011;53678;39.642;22.430;2023-10-08T02:27:05;19.40;;;12.35;;
65477;SDS011;53678;39.642;22.430;2023-10-08T02:29:31;18.90;;;12.13;;
65477;SDS011;53678;39.642;22.430;2023-10-08T02:31:57;18.23;;;12.50;;
65477;SDS011;53678;39.642;22.430;2023-10-08T02:34:24;19.35;;;12.23;;
65477;SDS011;53678;39.642;22.430;2023-10-08T02:36:50;18.35;;;11.18;;
65477;SDS011;53678;39.642;22.430;2023-10-08T02:39:16;17.02;;;11.60;;
65477;SDS011;53678;39.642;22.430;2023-10-08T02:41:47;16.17;;;10.73;;
65477;SDS011;53678;39.642;22.430;2023-10-08T02:44:14;21.02;;;11.68;;
65477;SDS011;53678;39.642;22.430;2023-10-08T02:46:42;16.48;;;11.52;;
65477;SDS011;53678;39.642;22.430;2023-10-08T02:49:15;25.98;;;12.50;;
65477;SDS011;53678;39.642;22.430;2023-10-08T02:51:46;17.08;;;10.98;;
65477;SDS011;53678;39.642;22.430;2023-10-08T02:54:12;16.50;;;11.25;;
65477;SDS011;53678;39.642;22.430;2023-10-08T02:56:52;17.13;;;11.95;;
65477;SDS011;53678;39.642;22.430;2023-10-08T02:59:23;19.25;;;12.50;;
65477;SDS011;53678;39.642;22.430;2023-10-08T03:01:50;19.13;;;11.48;;
65477;SDS011;53678;39.642;22.430;2023-10-08T03:04:22;18.33;;;11.02;;
65477;SDS011;53678;39.642;22.430;2023-10-08T03:06:48;20.98;;;10.98;;
65477;SDS011;53678;39.642;22.430;2023-10-08T03:09:19;18.48;;;11.90;;
65477;SDS011;53678;39.642;22.430;2023-10-08T03:11:48;17.17;;;11.60;;
65477;SDS011;53678;39.642;22.430;2023-10-08T03:14:17;18.80;;;11.30;;
65477;SDS011;53678;39.642;22.430;2023-10-08T03:16:50;18.10;;;11.15;;
65477;SDS011;53678;39.642;22.430;2023-10-08T03:19:19;21.50;;;11.45;;
65477;SDS011;53678;39.642;22.430;2023-10-08T03:21:47;25.42;;;11.88;;
65477;SDS011;53678;39.642;22.430;2023-10-08T03:24:19;29.85;;;15.13;;
65477;SDS011;53678;39.642;22.430;2023-10-08T03:27:00;21.23;;;15.13;;
65477;SDS011;53678;39.642;22.430;2023-10-08T03:29:41;27.23;;;15.90;;
65477;SDS011;53678;39.642;22.430;2023-10-08T03:32:10;23.00;;;15.65;;
65477;SDS011;53678;39.642;22.430;2023-10-08T03:37:16;26.52;;;15.90;;
65477;SDS011;53678;39.642;22.430;2023-10-08T03:39:49;27.23;;;16.10;;
65477;SDS011;53678;39.642;22.430;2023-10-08T03:42:45;23.42;;;16.05;;
65477;SDS011;53678;39.642;22.430;2023-10-08T03:45:15;32.38;;;16.25;;
65477;SDS011;53678;39.642;22.430;2023-10-08T03:47:47;30.95;;;16.33;;
65477;SDS011;53678;39.642;22.430;2023-10-08T03:50:28;26.90;;;17.13;;
65477;SDS011;53678;39.642;22.430;2023-10-08T03:53:14;25.35;;;16.63;;
65477;SDS011;53678;39.642;22.430;2023-10-08T03:55:41;28.83;;;16.17;;
65477;SDS011;53678;39.642;22.430;2023-10-08T03:58:07;24.02;;;16.70;;
65477;SDS011;53678;39.642;22.430;2023-10-08T04:00:55;24.00;;;15.85;;
65477;SDS011;53678;39.642;22.430;2023-10-08T04:03:36;25.20;;;15.90;;
65477;SDS011;53678;39.642;22.430;2023-10-08T04:06:20;26.27;;;15.57;;
65477;SDS011;53678;39.642;22.430;2023-10-08T04:08:59;26.00;;;15.80;;
65477;SDS011;53678;39.642;22.430;2023-10-08T04:11:35;24.48;;;15.00;;
65477;SDS011;53678;39.642;22.430;2023-10-08T04:14:15;24.33;;;15.05;;
65477;SDS011;53678;39.642;22.430;2023-10-08T04:16:43;23.08;;;14.20;;
65477;SDS011;53678;39.642;22.430;2023-10-08T04:19:10;24.48;;;15.35;;
65477;SDS011;53678;39.642;22.430;2023-10-08T04:21:36;26.15;;;15.45;;
65477;SDS011;53678;39.642;22.430;2023-10-08T04:24:05;25.67;;;14.35;;
65477;SDS011;53678;39.642;22.430;2023-10-08T04:26:31;20.67;;;13.13;;
65477;SDS011;53678;39.642;22.430;2023-10-08T04:28:58;24.20;;;13.10;;
65477;SDS011;53678;39.642;22.430;2023-10-08T04:31:30;19.23;;;12.35;;
65477;SDS011;53678;39.642;22.430;2023-10-08T04:34:09;21.45;;;14.00;;
65477;SDS011;53678;39.642;22.430;2023-10-08T04:36:42;20.55;;;12.57;;
65477;SDS011;53678;39.642;22.430;2023-10-08T04:39:10;21.67;;;12.73;;
65477;SDS011;53678;39.642;22.430;2023-10-08T04:41:40;18.80;;;12.80;;
65477;SDS011;53678;39.642;22.430;2023-10-08T04:44:08;16.33;;;11.52;;
65477;SDS011;53678;39.642;22.430;2023-10-08T04:46:40;19.55;;;11.57;;
65477;SDS011;53678;39.642;22.430;2023-10-08T04:49:15;16.77;;;11.73;;
65477;SDS011;53678;39.642;22.430;2023-10-08T04:52:06;17.00;;;11.68;;
65477;SDS011;53678;39.642;22.430;2023-10-08T04:54:41;17.50;;;10.88;;
65477;SDS011;53678;39.642;22.430;2023-10-08T04:57:16;18.00;;;10.90;;
65477;SDS011;53678;39.642;22.430;2023-10-08T04:59:43;16.95;;;11.50;;
65477;SDS011;53678;39.642;22.430;2023-10-08T05:02:11;18.52;;;11.98;;
65477;SDS011;53678;39.642;22.430;2023-10-08T05:04:56;18.08;;;11.77;;
65477;SDS011;53678;39.642;22.430;2023-10-08T05:07:37;16.67;;;11.05;;
65477;SDS011;53678;39.642;22.430;2023-10-08T05:10:26;14.57;;;10.65;;
65477;SDS011;53678;39.642;22.430;2023-10-08T05:12:52;16.73;;;10.45;;
65477;SDS011;53678;39.642;22.430;2023-10-08T05:15:30;16.20;;;10.50;;
65477;SDS011;53678;39.642;22.430;2023-10-08T05:18:07;19.73;;;10.63;;
65477;SDS011;53678;39.642;22.430;2023-10-08T05:20:59;14.48;;;9.05;;
65477;SDS011;53678;39.642;22.430;2023-10-08T05:23:27;23.98;;;10.48;;
65477;SDS011;53678;39.642;22.430;2023-10-08T05:25:53;18.52;;;9.85;;
65477;SDS011;53678;39.642;22.430;2023-10-08T05:28:43;18.30;;;10.13;;
65477;SDS011;53678;39.642;22.430;2023-10-08T05:31:29;18.40;;;10.05;;
65477;SDS011;53678;39.642;22.430;2023-10-08T05:34:07;13.00;;;9.35;;
65477;SDS011;53678;39.642;22.430;2023-10-08T05:36:42;16.60;;;9.43;;
65477;SDS011;53678;39.642;22.430;2023-10-08T05:39:16;16.85;;;9.40;;
65477;SDS011;53678;39.642;22.430;2023-10-08T05:42:00;16.88;;;10.77;;
65477;SDS011;53678;39.642;22.430;2023-10-08T05:44:42;16.13;;;9.63;;
65477;SDS011;53678;39.642;22.430;2023-10-08T05:47:32;17.88;;;10.60;;
65477;SDS011;53678;39.642;22.430;2023-10-08T05:49:58;19.27;;;10.48;;
65477;SDS011;53678;39.642;22.430;2023-10-08T05:52:43;20.63;;;10.60;;
65477;SDS011;53678;39.642;22.430;2023-10-08T05:55:19;17.65;;;10.88;;
65477;SDS011;53678;39.642;22.430;2023-10-08T05:57:52;12.77;;;9.55;;
65477;SDS011;53678;39.642;22.430;2023-10-08T06:00:29;16.70;;;10.57;;
65477;SDS011;53678;39.642;22.430;2023-10-08T06:03:11;15.25;;;10.60;;
65477;SDS011;53678;39.642;22.430;2023-10-08T06:06:00;14.43;;;10.98;;
65477;SDS011;53678;39.642;22.430;2023-10-08T06:08:42;16.75;;;10.48;;
65477;SDS011;53678;39.642;22.430;2023-10-08T06:11:34;15.45;;;10.60;;
65477;SDS011;53678;39.642;22.430;2023-10-08T06:14:10;16.15;;;11.25;;
65477;SDS011;53678;39.642;22.430;2023-10-08T06:16:43;16.13;;;9.50;;
65477;SDS011;53678;39.642;22.430;2023-10-08T06:19:10;14.02;;;9.60;;
65477;SDS011;53678;39.642;22.430;2023-10-08T06:21:40;16.05;;;11.25;;
65477;SDS011;53678;39.642;22.430;2023-10-08T06:24:12;18.33;;;11.98;;
65477;SDS011;53678;39.642;22.430;2023-10-08T06:26:42;18.13;;;12.45;;
65477;SDS011;53678;39.642;22.430;2023-10-08T06:29:09;23.27;;;13.07;;
65477;SDS011;53678;39.642;22.430;2023-10-08T06:31:47;18.58;;;12.77;;
65477;SDS011;53678;39.642;22.430;2023-10-08T06:34:17;18.55;;;13.30;;
65477;SDS011;53678;39.642;22.430;2023-10-08T06:36:47;27.35;;;15.05;;
65477;SDS011;53678;39.642;22.430;2023-10-08T06:39:15;23.42;;;14.35;;
65477;SDS011;53678;39.642;22.430;2023-10-08T06:41:44;27.02;;;13.50;;
65477;SDS011;53678;39.642;22.430;2023-10-08T06:44:11;22.98;;;13.98;;
65477;SDS011;53678;39.642;22.430;2023-10-08T06:46:40;23.55;;;13.05;;
65477;SDS011;53678;39.642;22.430;2023-10-08T06:49:06;18.77;;;12.13;;
65477;SDS011;53678;39.642;22.430;2023-10-08T06:51:40;19.23;;;12.57;;
65477;SDS011;53678;39.642;22.430;2023-10-08T06:54:10;20.80;;;12.90;;
65477;SDS011;53678;39.642;22.430;2023-10-08T06:56:39;22.50;;;12.68;;
65477;SDS011;53678;39.642;22.430;2023-10-08T06:59:05;19.30;;;12.45;;
65477;SDS011;53678;39.642;22.430;2023-10-08T07:01:34;21.02;;;13.88;;
65477;SDS011;53678;39.642;22.430;2023-10-08T07:04:05;18.65;;;12.85;;
65477;SDS011;53678;39.642;22.430;2023-10-08T07:06:32;20.52;;;12.95;;
65477;SDS011;53678;39.642;22.430;2023-10-08T07:09:02;25.83;;;12.80;;
65477;SDS011;53678;39.642;22.430;2023-10-08T07:11:32;16.02;;;11.00;;
65477;SDS011;53678;39.642;22.430;2023-10-08T07:14:04;16.05;;;10.98;;
65477;SDS011;53678;39.642;22.430;2023-10-08T07:16:31;15.27;;;9.88;;
65477;SDS011;53678;39.642;22.430;2023-10-08T07:18:58;15.52;;;10.40;;
65477;SDS011;53678;39.642;22.430;2023-10-08T07:21:28;16.77;;;11.40;;
65477;SDS011;53678;39.642;22.430;2023-10-08T07:24:03;17.40;;;9.82;;
65477;SDS011;53678;39.642;22.430;2023-10-08T07:26:35;16.58;;;10.75;;
65477;SDS011;53678;39.642;22.430;2023-10-08T07:29:05;13.85;;;10.15;;
65477;SDS011;53678;39.642;22.430;2023-10-08T07:31:35;19.80;;;10.40;;
65477;SDS011;53678;39.642;22.430;2023-10-08T07:34:02;16.38;;;10.70;;
65477;SDS011;53678;39.642;22.430;2023-10-08T07:36:42;14.48;;;9.80;;
65477;SDS011;53678;39.642;22.430;2023-10-08T07:39:08;17.70;;;10.70;;
65477;SDS011;53678;39.642;22.430;2023-10-08T07:41:48;20.85;;;11.07;;
65477;SDS011;53678;39.642;22.430;2023-10-08T07:44:15;14.35;;;9.75;;
65477;SDS011;53678;39.642;22.430;2023-10-08T07:46:41;15.32;;;10.18;;
65477;SDS011;53678;39.642;22.430;2023-10-08T07:49:06;15.40;;;9.57;;
65477;SDS011;53678;39.642;22.430;2023-10-08T07:51:32;15.73;;;9.93;;
65477;SDS011;53678;39.642;22.430;2023-10-08T07:53:59;16.95;;;8.98;;
65477;SDS011;53678;39.642;22.430;2023-10-08T07:56:25;14.05;;;10.18;;
65477;SDS011;53678;39.642;22.430;2023-10-08T07:58:51;13.48;;;9.77;;
65477;SDS011;53678;39.642;22.430;2023-10-08T08:01:17;20.92;;;10.70;;
65477;SDS011;53678;39.642;22.430;2023-10-08T08:03:46;13.88;;;9.18;;
65477;SDS011;53678;39.642;22.430;2023-10-08T08:06:14;15.02;;;9.95;;
65477;SDS011;53678;39.642;22.430;2023-10-08T08:08:40;16.27;;;10.55;;
65477;SDS011;53678;39.642;22.430;2023-10-08T08:11:07;18.35;;;10.52;;
65477;SDS011;53678;39.642;22.430;2023-10-08T08:13:44;16.45;;;11.18;;
65477;SDS011;53678;39.642;22.430;2023-10-08T08:16:11;15.20;;;10.27;;
65477;SDS011;53678;39.642;22.430;2023-10-08T08:18:46;21.42;;;11.80;;
65477;SDS011;53678;39.642;22.430;2023-10-08T08:21:17;28.23;;;11.05;;
65477;SDS011;53678;39.642;22.430;2023-10-08T08:23:47;13.55;;;10.60;;
65477;SDS011;53678;39.642;22.430;2023-10-08T08:26:17;22.23;;;11.90;;
65477;SDS011;53678;39.642;22.430;2023-10-08T08:28:58;19.92;;;12.32;;
65477;SDS011;53678;39.642;22.430;2023-10-08T08:31:27;21.95;;;12.68;;
65477;SDS011;53678;39.642;22.430;2023-10-08T08:33:57;19.10;;;12.93;;
65477;SDS011;53678;39.642;22.430;2023-10-08T08:36:39;18.77;;;12.45;;
65477;SDS011;53678;39.642;22.430;2023-10-08T08:39:11;16.87;;;11.40;;
65477;SDS011;53678;39.642;22.430;2023-10-08T08:42:03;17.45;;;12.63;;
65477;SDS011;53678;39.642;22.430;2023-10-08T08:44:34;23.38;;;12.82;;
65477;SDS011;53678;39.642;22.430;2023-10-08T08:47:04;19.73;;;11.98;;
65477;SDS011;53678;39.642;22.430;2023-10-08T08:49:35;18.02;;;12.25;;
65477;SDS011;53678;39.642;22.430;2023-10-08T08:52:04;20.58;;;12.50;;
65477;SDS011;53678;39.642;22.430;2023-10-08T08:54:30;20.52;;;12.63;;
65477;SDS011;53678;39.642;22.430;2023-10-08T08:56:59;20.67;;;12.50;;
65477;SDS011;53678;39.642;22.430;2023-10-08T08:59:29;20.98;;;12.18;;
65477;SDS011;53678;39.642;22.430;2023-10-08T09:01:59;21.25;;;12.38;;
65477;SDS011;53678;39.642;22.430;2023-10-08T09:04:31;19.08;;;13.00;;
65477;SDS011;53678;39.642;22.430;2023-10-08T09:07:01;19.90;;;12.75;;
65477;SDS011;53678;39.642;22.430;2023-10-08T09:09:34;19.52;;;11.27;;
65477;SDS011;53678;39.642;22.430;2023-10-08T09:12:03;18.40;;;10.70;;
65477;SDS011;53678;39.642;22.430;2023-10-08T09:14:30;15.30;;;10.65;;
65477;SDS011;53678;39.642;22.430;2023-10-08T09:17:00;19.05;;;10.70;;
65477;SDS011;53678;39.642;22.430;2023-10-08T09:19:29;19.13;;;11.50;;
65477;SDS011;53678;39.642;22.430;2023-10-08T09:22:08;15.50;;;9.45;;
65477;SDS011;53678;39.642;22.430;2023-10-08T09:24:37;17.23;;;11.90;;
65477;SDS011;53678;39.642;22.430;2023-10-08T09:27:05;18.48;;;11.02;;
65477;SDS011;53678;39.642;22.430;2023-10-08T09:29:32;13.68;;;8.75;;
65477;SDS011;53678;39.642;22.430;2023-10-08T09:32:05;13.50;;;9.07;;
65477;SDS011;53678;39.642;22.430;2023-10-08T09:34:33;15.35;;;9.68;;
65477;SDS011;53678;39.642;22.430;2023-10-08T09:37:00;18.58;;;11.20;;
65477;SDS011;53678;39.642;22.430;2023-10-08T09:39:26;16.95;;;9.95;;
65477;SDS011;53678;39.642;22.430;2023-10-08T09:42:00;12.30;;;9.07;;
65477;SDS011;53678;39.642;22.430;2023-10-08T09:44:36;16.05;;;9.25;;
65477;SDS011;53678;39.642;22.430;2023-10-08T09:47:06;16.25;;;10.40;;
65477;SDS011;53678;39.642;22.430;2023-10-08T09:49:44;13.18;;;9.35;;
65477;SDS011;53678;39.642;22.430;2023-10-08T09:52:23;15.55;;;10.70;;
65477;SDS011;53678;39.642;22.430;2023-10-08T09:54:54;15.57;;;9.20;;
65477;SDS011;53678;39.642;22.430;2023-10-08T09:57:29;12.85;;;9.13;;
65477;SDS011;53678;39.642;22.430;2023-10-08T09:59:56;12.52;;;8.55;;
65477;SDS011;53678;39.642;22.430;2023-10-08T10:02:25;14.07;;;8.60;;
65477;SDS011;53678;39.642;22.430;2023-10-08T10:04:54;13.35;;;8.43;;
65477;SDS011;53678;39.642;22.430;2023-10-08T10:07:20;14.77;;;9.38;;
65477;SDS011;53678;39.642;22.430;2023-10-08T10:09:50;13.05;;;8.40;;
65477;SDS011;53678;39.642;22.430;2023-10-08T10:12:20;11.40;;;8.38;;
65477;SDS011;53678;39.642;22.430;2023-10-08T10:14:52;13.60;;;8.40;;
65477;SDS011;53678;39.642;22.430;2023-10-08T10:17:25;12.23;;;9.30;;
65477;SDS011;53678;39.642;22.430;2023-10-08T10:19:57;15.20;;;9.10;;
65477;SDS011;53678;39.642;22.430;2023-10-08T10:22:29;13.38;;;9.13;;
65477;SDS011;53678;39.642;22.430;2023-10-08T10:25:02;13.10;;;8.55;;
65477;SDS011;53678;39.642;22.430;2023-10-08T10:27:51;12.07;;;9.02;;
65477;SDS011;53678;39.642;22.430;2023-10-08T10:30:31;12.63;;;8.38;;
65477;SDS011;53678;39.642;22.430;2023-10-08T10:33:00;14.98;;;8.23;;
65477;SDS011;53678;39.642;22.430;2023-10-08T10:35:26;16.90;;;10.77;;
65477;SDS011;53678;39.642;22.430;2023-10-08T10:37:53;16.23;;;9.82;;
65477;SDS011;53678;39.642;22.430;2023-10-08T10:40:21;16.15;;;12.00;;
65477;SDS011;53678;39.642;22.430;2023-10-08T10:43:08;12.40;;;7.30;;
65477;SDS011;53678;39.642;22.430;2023-10-08T10:45:41;12.50;;;7.70;;
65477;SDS011;53678;39.642;22.430;2023-10-08T10:48:11;12.05;;;7.57;;
65477;SDS011;53678;39.642;22.430;2023-10-08T10:50:47;13.68;;;8.00;;
65477;SDS011;53678;39.642;22.430;2023-10-08T10:53:33;12.63;;;7.20;;
65477;SDS011;53678;39.642;22.430;2023-10-08T10:56:13;14.50;;;9.50;;
65477;SDS011;53678;39.642;22.430;2023-10-08T10:58:47;13.10;;;8.30;;
65477;SDS011;53678;39.642;22.430;2023-10-08T11:01:22;12.32;;;8.15;;
65477;SDS011;53678;39.642;22.430;2023-10-08T11:03:55;11.75;;;8.73;;
65477;SDS011;53678;39.642;22.430;2023-10-08T11:06:25;18.05;;;8.77;;
65477;SDS011;53678;39.642;22.430;2023-10-08T11:08:52;12.23;;;7.10;;
65477;SDS011;53678;39.642;22.430;2023-10-08T11:11:27;11.88;;;7.22;;
65477;SDS011;53678;39.642;22.430;2023-10-08T11:13:57;14.40;;;7.82;;
65477;SDS011;53678;39.642;22.430;2023-10-08T11:16:25;11.32;;;7.65;;
65477;SDS011;53678;39.642;22.430;2023-10-08T11:18:53;11.73;;;7.85;;
65477;SDS011;53678;39.642;22.430;2023-10-08T11:21:23;13.45;;;9.07;;
65477;SDS011;53678;39.642;22.430;2023-10-08T11:23:50;12.52;;;7.38;;
65477;SDS011;53678;39.642;22.430;2023-10-08T11:26:21;14.63;;;7.57;;
65477;SDS011;53678;39.642;22.430;2023-10-08T11:28:58;15.70;;;7.55;;
65477;SDS011;53678;39.642;22.430;2023-10-08T11:31:29;16.50;;;9.40;;
65477;SDS011;53678;39.642;22.430;2023-10-08T11:33:58;20.63;;;9.82;;
65477;SDS011;53678;39.642;22.430;2023-10-08T11:36:35;11.20;;;7.25;;
65477;SDS011;53678;39.642;22.430;2023-10-08T11:39:14;10.38;;;7.18;;
65477;SDS011;53678;39.642;22.430;2023-10-08T11:41:59;11.45;;;8.32;;
65477;SDS011;53678;39.642;22.430;2023-10-08T11:44:32;14.48;;;8.23;;
65477;SDS011;53678;39.642;22.430;2023-10-08T11:47:02;10.45;;;7.57;;
65477;SDS011;53678;39.642;22.430;2023-10-08T11:49:39;16.95;;;7.78;;
65477;SDS011;53678;39.642;22.430;2023-10-08T11:52:15;12.63;;;7.78;;
65477;SDS011;53678;39.642;22.430;2023-10-08T11:54:44;14.30;;;7.55;;
65477;SDS011;53678;39.642;22.430;2023-10-08T11:57:13;13.10;;;8.40;;
65477;SDS011;53678;39.642;22.430;2023-10-08T11:59:39;12.27;;;7.47;;
65477;SDS011;53678;39.642;22.430;2023-10-08T12:02:09;10.15;;;6.93;;
65477;SDS011;53678;39.642;22.430;2023-10-08T12:04:42;15.38;;;8.10;;
65477;SDS011;53678;39.642;22.430;2023-10-08T12:07:10;17.85;;;7.28;;
65477;SDS011;53678;39.642;22.430;2023-10-08T12:09:36;12.25;;;7.18;;
65477;SDS011;53678;39.642;22.430;2023-10-08T12:12:05;13.68;;;7.32;;
65477;SDS011;53678;39.642;22.430;2023-10-08T12:14:39;14.00;;;7.10;;
65477;SDS011;53678;39.642;22.430;2023-10-08T12:17:05;13.23;;;7.15;;
65477;SDS011;53678;39.642;22.430;2023-10-08T12:19:37;11.52;;;7.30;;
65477;SDS011;53678;39.642;22.430;2023-10-08T12:22:05;13.20;;;9.40;;
65477;SDS011;53678;39.642;22.430;2023-10-08T12:24:33;14.50;;;9.27;;
65477;SDS011;53678;39.642;22.430;2023-10-08T12:26:58;12.32;;;8.35;;
65477;SDS011;53678;39.642;22.430;2023-10-08T12:29:24;11.02;;;6.95;;
65477;SDS011;53678;39.642;22.430;2023-10-08T12:31:52;12.63;;;7.65;;
65477;SDS011;53678;39.642;22.430;2023-10-08T12:34:18;13.30;;;6.22;;
65477;SDS011;53678;39.642;22.430;2023-10-08T12:36:44;10.68;;;6.32;;
65477;SDS011;53678;39.642;22.430;2023-10-08T12:39:13;11.35;;;6.85;;
65477;SDS011;53678;39.642;22.430;2023-10-08T12:41:42;10.10;;;6.60;;
65477;SDS011;53678;39.642;22.430;2023-10-08T12:44:09;10.25;;;5.82;;
65477;SDS011;53678;39.642;22.430;2023-10-08T12:46:36;10.55;;;6.65;;
65477;SDS011;53678;39.642;22.430;2023-10-08T12:49:02;10.25;;;6.53;;
65477;SDS011;53678;39.642;22.430;2023-10-08T12:51:28;18.38;;;7.57;;
65477;SDS011;53678;39.642;22.430;2023-10-08T12:53:59;11.30;;;6.47;;
65477;SDS011;53678;39.642;22.430;2023-10-08T12:56:46;9.50;;;6.35;;
65477;SDS011;53678;39.642;22.430;2023-10-08T12:59:20;14.02;;;6.10;;
65477;SDS011;53678;39.642;22.430;2023-10-08T13:01:46;10.52;;;5.95;;
65477;SDS011;53678;39.642;22.430;2023-10-08T13:04:21;9.18;;;6.28;;
65477;SDS011;53678;39.642;22.430;2023-10-08T13:06:54;9.52;;;6.35;;
65477;SDS011;53678;39.642;22.430;2023-10-08T13:11:52;14.38;;;6.35;;
65477;SDS011;53678;39.642;22.430;2023-10-08T13:14:19;10.77;;;6.50;;
65477;SDS011;53678;39.642;22.430;2023-10-08T13:16:47;8.98;;;6.32;;
65477;SDS011;53678;39.642;22.430;2023-10-08T13:19:14;14.80;;;6.43;;
65477;SDS011;53678;39.642;22.430;2023-10-08T13:21:41;10.60;;;6.93;;
65477;SDS011;53678;39.642;22.430;2023-10-08T13:24:06;10.55;;;6.93;;
65477;SDS011;53678;39.642;22.430;2023-10-08T13:26:34;16.65;;;7.32;;
65477;SDS011;53678;39.642;22.430;2023-10-08T13:29:02;12.77;;;6.82;;
65477;SDS011;53678;39.642;22.430;2023-10-08T13:31:28;16.75;;;9.85;;
65477;SDS011;53678;39.642;22.430;2023-10-08T13:33:54;11.70;;;6.15;;
65477;SDS011;53678;39.642;22.430;2023-10-08T13:36:25;13.20;;;6.13;;
65477;SDS011;53678;39.642;22.430;2023-10-08T13:38:51;9.55;;;6.10;;
65477;SDS011;53678;39.642;22.430;2023-10-08T13:41:17;10.50;;;6.10;;
65477;SDS011;53678;39.642;22.430;2023-10-08T13:43:45;10.85;;;6.50;;
65477;SDS011;53678;39.642;22.430;2023-10-08T13:46:14;9.60;;;6.15;;
65477;SDS011;53678;39.642;22.430;2023-10-08T13:48:43;17.40;;;6.43;;
65477;SDS011;53678;39.642;22.430;2023-10-08T13:51:20;12.43;;;6.70;;
65477;SDS011;53678;39.642;22.430;2023-10-08T13:53:49;12.82;;;6.65;;
65477;SDS011;53678;39.642;22.430;2023-10-08T13:56:19;13.55;;;6.55;;
65477;SDS011;53678;39.642;22.430;2023-10-08T13:58:50;12.43;;;6.80;;
65477;SDS011;53678;39.642;22.430;2023-10-08T14:01:21;14.45;;;7.20;;
65477;SDS011;53678;39.642;22.430;2023-10-08T14:03:47;10.38;;;7.20;;
65477;SDS011;53678;39.642;22.430;2023-10-08T14:06:14;11.90;;;6.05;;
65477;SDS011;53678;39.642;22.430;2023-10-08T14:08:42;10.23;;;6.72;;
65477;SDS011;53678;39.642;22.430;2023-10-08T14:11:19;9.82;;;6.38;;
65477;SDS011;53678;39.642;22.430;2023-10-08T14:13:52;10.43;;;5.80;;
65477;SDS011;53678;39.642;22.430;2023-10-08T14:16:18;10.25;;;6.20;;
65477;SDS011;53678;39.642;22.430;2023-10-08T14:18:49;10.75;;;5.90;;
65477;SDS011;53678;39.642;22.430;2023-10-08T14:21:19;10.35;;;6.28;;
65477;SDS011;53678;39.642;22.430;2023-10-08T14:23:52;11.00;;;5.60;;
65477;SDS011;53678;39.642;22.430;2023-10-08T14:26:18;10.20;;;5.63;;
65477;SDS011;53678;39.642;22.430;2023-10-08T14:28:47;8.50;;;5.80;;
65477;SDS011;53678;39.642;22.430;2023-10-08T14:31:20;9.68;;;5.97;;
65477;SDS011;53678;39.642;22.430;2023-10-08T14:33:50;10.30;;;5.97;;
65477;SDS011;53678;39.642;22.430;2023-10-08T14:36:33;8.68;;;5.78;;
65477;SDS011;53678;39.642;22.430;2023-10-08T14:39:19;10.20;;;5.50;;
65477;SDS011;53678;39.642;22.430;2023-10-08T14:42:03;9.88;;;5.35;;
65477;SDS011;53678;39.642;22.430;2023-10-08T14:44:47;11.48;;;6.70;;
65477;SDS011;53678;39.642;22.430;2023-10-08T14:47:16;9.45;;;6.13;;